createdAt,value
2018-01-01T00:02:05.822Z,2.97
2018-01-01T00:04:34.116Z,3.27
2018-01-01T00:07:02.363Z,3.43
2018-01-01T00:09:31.930Z,4.60
2018-01-01T00:12:00.285Z,4.70
2018-01-01T00:14:28.618Z,3.80
2018-01-01T00:16:56.977Z,3.80
2018-01-01T00:19:25.283Z,3.90
2018-01-01T00:21:54.364Z,4.20
2018-01-01T00:24:22.671Z,4.07
2018-01-01T00:26:51.772Z,4.17
2018-01-01T00:29:20.092Z,4.13
2018-01-01T00:31:48.455Z,4.70
2018-01-01T00:34:16.778Z,4.00
2018-01-01T00:36:45.887Z,3.73
2018-01-01T00:39:14.983Z,3.00
2018-01-01T00:41:44.085Z,2.67
2018-01-01T00:44:12.384Z,3.53
2018-01-01T00:46:40.667Z,3.70
2018-01-01T00:49:08.950Z,2.93
2018-01-01T00:51:37.231Z,2.77
2018-01-01T00:54:05.526Z,3.30
2018-01-01T00:56:33.803Z,3.23
2018-01-01T00:59:02.105Z,3.90
2018-01-01T01:01:30.387Z,4.03
2018-01-01T01:03:59.452Z,3.30
2018-01-01T01:06:27.747Z,4.27
2018-01-01T01:08:56.034Z,5.20
2018-01-01T01:11:25.062Z,3.80
2018-01-01T01:13:53.322Z,4.10
2018-01-01T01:16:24.447Z,3.50
2018-01-01T01:19:00.590Z,4.33
2018-01-01T01:21:29.697Z,3.43
2018-01-01T01:23:58.748Z,2.83
2018-01-01T01:26:27.002Z,2.53
2018-01-01T01:28:55.252Z,2.70
2018-01-01T01:31:35.945Z,3.20
2018-01-01T01:34:04.266Z,3.47
2018-01-01T01:36:32.541Z,3.37
2018-01-01T01:39:00.796Z,3.83
2018-01-01T01:41:29.065Z,2.37
2018-01-01T01:43:57.354Z,2.97
2018-01-01T01:46:25.614Z,3.20
2018-01-01T01:48:53.884Z,2.77
2018-01-01T01:51:22.141Z,3.20
2018-01-01T01:53:50.437Z,1.43
2018-01-01T01:56:18.712Z,4.17
2018-01-01T01:58:47.684Z,2.27
2018-01-01T02:01:15.976Z,3.50
2018-01-01T02:03:44.267Z,3.73
2018-01-01T02:06:12.780Z,3.93
2018-01-01T02:08:41.050Z,2.50
2018-01-01T02:11:09.324Z,2.03
2018-01-01T02:13:37.591Z,3.40
2018-01-01T02:16:05.855Z,2.20
2018-01-01T02:18:34.118Z,2.40
2018-01-01T02:21:02.381Z,2.43
2018-01-01T02:23:30.644Z,2.17
2018-01-01T02:25:59.844Z,2.00
2018-01-01T02:28:28.110Z,1.80
2018-01-01T02:30:56.372Z,1.70
2018-01-01T02:33:25.404Z,1.77
2018-01-01T02:35:53.674Z,1.90
2018-01-01T02:38:22.369Z,1.60
2018-01-01T02:40:50.771Z,1.37
2018-01-01T02:43:20.236Z,1.20
2018-01-01T02:45:48.550Z,1.27
2018-01-01T02:48:16.867Z,1.00
2018-01-01T02:50:45.925Z,1.80
2018-01-01T02:53:14.238Z,1.67
2018-01-01T02:55:43.256Z,1.53
2018-01-01T02:58:11.529Z,0.90
2018-01-01T03:00:39.784Z,1.10
2018-01-01T03:03:08.164Z,1.90
2018-01-01T03:05:37.251Z,1.60
2018-01-01T03:08:06.358Z,1.00
2018-01-01T03:10:35.672Z,1.47
2018-01-01T03:13:04.064Z,1.33
2018-01-01T03:15:32.421Z,1.20
2018-01-01T03:18:00.775Z,1.20
2018-01-01T03:20:29.052Z,1.10
2018-01-01T03:22:57.340Z,0.90
2018-01-01T03:25:35.419Z,0.70
2018-01-01T03:28:04.525Z,1.30
2018-01-01T03:30:33.659Z,0.90
2018-01-01T03:33:01.916Z,1.23
2018-01-01T03:35:30.205Z,0.90
2018-01-01T03:37:58.475Z,1.70
2018-01-01T03:40:26.762Z,1.57
2018-01-01T03:42:55.024Z,1.33
2018-01-01T03:45:23.279Z,1.00
2018-01-01T03:47:52.333Z,1.43
2018-01-01T03:50:20.605Z,1.20
2018-01-01T03:52:48.887Z,1.37
2018-01-01T03:55:17.132Z,0.73
2018-01-01T03:57:45.402Z,1.40
2018-01-01T04:00:13.661Z,0.90
2018-01-01T04:02:42.702Z,1.20
2018-01-01T04:05:10.967Z,1.10
2018-01-01T04:07:39.244Z,1.47
2018-01-01T04:10:07.513Z,0.90
2018-01-01T04:12:35.773Z,2.43
2018-01-01T04:15:04.043Z,1.03
2018-01-01T04:17:32.300Z,0.97
2018-01-01T04:20:01.330Z,1.33
2018-01-01T04:22:29.589Z,1.03
2018-01-01T04:24:57.863Z,0.93
2018-01-01T04:27:26.917Z,1.00
2018-01-01T04:29:55.183Z,1.13
2018-01-01T04:32:23.456Z,1.93
2018-01-01T04:34:51.719Z,1.03
2018-01-01T04:37:19.986Z,1.10
2018-01-01T04:39:48.258Z,1.13
2018-01-01T04:42:16.523Z,0.97
2018-01-01T04:44:44.790Z,1.03
2018-01-01T04:47:13.055Z,1.23
2018-01-01T04:49:42.084Z,1.10
2018-01-01T04:52:10.359Z,0.97
2018-01-01T04:54:38.614Z,1.00
2018-01-01T04:57:06.887Z,1.30
2018-01-01T04:59:35.160Z,0.80
2018-01-01T05:02:04.199Z,1.20
2018-01-01T05:04:32.464Z,0.93
2018-01-01T05:07:00.736Z,0.97
2018-01-01T05:09:29.004Z,1.90
2018-01-01T05:11:57.267Z,1.17
2018-01-01T05:14:25.543Z,0.70
2018-01-01T05:16:53.814Z,0.73
2018-01-01T05:19:22.087Z,0.70
2018-01-01T05:21:50.348Z,1.17
2018-01-01T05:24:19.379Z,1.50
2018-01-01T05:26:47.644Z,1.10
2018-01-01T05:29:15.909Z,1.20
2018-01-01T05:31:44.176Z,1.00
2018-01-01T05:34:13.197Z,1.27
2018-01-01T05:36:41.476Z,0.80
2018-01-01T05:39:09.750Z,1.30
2018-01-01T05:41:38.015Z,1.13
2018-01-01T05:44:06.275Z,0.80
2018-01-01T05:46:34.552Z,0.90
2018-01-01T05:49:03.566Z,0.93
2018-01-01T05:51:31.836Z,0.87
2018-01-01T05:54:00.092Z,1.10
2018-01-01T05:56:29.122Z,1.00
2018-01-01T05:58:57.374Z,1.30
2018-01-01T06:01:25.643Z,1.00
2018-01-01T06:03:53.915Z,0.80
2018-01-01T06:06:22.203Z,0.93
2018-01-01T06:08:50.461Z,0.87
2018-01-01T06:11:19.489Z,1.17
2018-01-01T06:13:47.760Z,0.60
2018-01-01T06:16:16.020Z,0.80
2018-01-01T06:18:44.291Z,0.83
2018-01-01T06:21:12.554Z,0.90
2018-01-01T06:23:41.595Z,0.70
2018-01-01T06:26:09.855Z,1.00
2018-01-01T06:28:38.131Z,0.93
2018-01-01T06:31:06.396Z,1.00
2018-01-01T06:33:34.658Z,0.60
2018-01-01T06:36:02.951Z,0.90
2018-01-01T06:38:31.238Z,1.10
2018-01-01T06:40:59.498Z,0.90
2018-01-01T06:43:27.765Z,0.93
2018-01-01T06:45:56.033Z,1.13
2018-01-01T06:48:25.062Z,0.83
2018-01-01T06:50:53.323Z,1.60
2018-01-01T06:53:21.611Z,1.40
2018-01-01T06:55:49.866Z,1.20
2018-01-01T06:58:18.132Z,0.90
2018-01-01T07:00:47.199Z,1.20
2018-01-01T07:03:15.451Z,0.80
2018-01-01T07:05:43.723Z,1.10
2018-01-01T07:08:12.004Z,0.80
2018-01-01T07:10:40.253Z,1.80
2018-01-01T07:13:08.527Z,1.13
2018-01-01T07:15:36.795Z,1.10
2018-01-01T07:18:05.057Z,0.63
2018-01-01T07:20:33.318Z,1.10
2018-01-01T07:23:02.359Z,1.50
2018-01-01T07:25:30.629Z,1.87
2018-01-01T07:27:58.905Z,1.00
2018-01-01T07:30:27.161Z,1.00
2018-01-01T07:32:55.430Z,1.43
2018-01-01T07:35:23.746Z,2.03
2018-01-01T07:37:52.029Z,1.70
2018-01-01T07:40:20.282Z,2.57
2018-01-01T07:42:48.553Z,1.70
2018-01-01T07:45:16.831Z,1.47
2018-01-01T07:47:45.089Z,1.30
2018-01-01T07:50:13.356Z,1.40
2018-01-01T07:52:42.508Z,1.90
2018-01-01T07:55:10.794Z,1.50
2018-01-01T07:57:39.088Z,1.03
2018-01-01T08:00:07.385Z,0.90
2018-01-01T08:02:36.425Z,1.53
2018-01-01T08:05:04.752Z,1.00
2018-01-01T08:07:33.825Z,0.93
2018-01-01T08:10:02.157Z,1.67
2018-01-01T08:12:30.448Z,1.50
2018-01-01T08:14:58.741Z,1.63
2018-01-01T08:17:27.027Z,0.87
2018-01-01T08:19:55.316Z,1.20
2018-01-01T08:22:23.586Z,1.20
2018-01-01T08:24:51.873Z,1.60
2018-01-01T08:27:20.925Z,1.03
2018-01-01T08:29:49.202Z,1.40
2018-01-01T08:32:17.527Z,1.00
2018-01-01T08:34:46.666Z,1.10
2018-01-01T08:37:14.965Z,0.90
2018-01-01T08:39:43.311Z,1.40
2018-01-01T08:42:11.646Z,1.00
2018-01-01T08:44:40.739Z,1.53
2018-01-01T08:47:09.838Z,0.90
2018-01-01T08:49:38.961Z,1.50
2018-01-01T08:52:07.284Z,1.23
2018-01-01T08:54:35.639Z,1.37
2018-01-01T08:57:03.966Z,1.03
2018-01-01T08:59:32.323Z,0.70
2018-01-01T09:02:01.454Z,1.10
2018-01-01T09:04:29.789Z,1.10
2018-01-01T09:06:58.167Z,1.40
2018-01-01T09:09:26.487Z,1.47
2018-01-01T09:11:54.845Z,1.20
2018-01-01T09:14:23.949Z,0.80
2018-01-01T09:16:53.072Z,0.80
2018-01-01T09:19:21.412Z,0.93
2018-01-01T09:21:50.526Z,0.80
2018-01-01T09:24:18.868Z,0.80
2018-01-01T09:26:47.983Z,1.50
2018-01-01T09:29:17.081Z,0.90
2018-01-01T09:31:46.184Z,0.80
2018-01-01T09:34:14.528Z,1.17
2018-01-01T09:36:42.845Z,1.23
2018-01-01T09:39:11.193Z,1.27
2018-01-01T09:41:39.524Z,1.20
2018-01-01T09:44:07.850Z,0.90
2018-01-01T09:46:36.934Z,0.80
2018-01-01T09:49:05.258Z,1.20
2018-01-01T09:51:33.565Z,0.73
2018-01-01T09:54:01.932Z,1.40
2018-01-01T09:56:30.259Z,1.03
2018-01-01T09:58:59.360Z,0.97
2018-01-01T10:01:28.453Z,1.20
2018-01-01T10:03:57.565Z,1.10
2018-01-01T10:06:25.925Z,0.80
2018-01-01T10:08:55.005Z,0.80
2018-01-01T10:11:23.309Z,0.80
2018-01-01T10:13:51.624Z,0.97
2018-01-01T10:16:20.001Z,1.40
2018-01-01T10:18:49.087Z,1.30
2018-01-01T10:21:17.416Z,1.10
2018-01-01T10:23:46.512Z,0.60
2018-01-01T10:26:14.972Z,1.07
2018-01-01T10:28:44.026Z,1.00
2018-01-01T10:31:12.332Z,1.40
2018-01-01T10:36:40.688Z,0.97
2018-01-01T10:39:09.782Z,1.20
2018-01-01T10:41:38.861Z,1.47
2018-01-01T10:44:07.933Z,0.87
2018-01-01T10:46:36.200Z,1.40
2018-01-01T10:49:04.462Z,1.03
2018-01-01T10:51:32.731Z,1.30
2018-01-01T10:54:00.985Z,1.47
2018-01-01T10:56:29.261Z,1.70
2018-01-01T10:58:57.531Z,1.33
2018-01-01T11:01:27.368Z,1.30
2018-01-01T11:03:56.832Z,1.37
2018-01-01T11:06:27.685Z,1.17
2018-01-01T11:08:56.821Z,1.70
2018-01-01T11:11:25.145Z,1.53
2018-01-01T11:13:53.527Z,1.30
2018-01-01T11:16:21.823Z,1.40
2018-01-01T11:18:50.199Z,1.30
2018-01-01T11:21:18.478Z,1.37
2018-01-01T11:23:46.731Z,1.43
2018-01-01T11:26:14.997Z,1.53
2018-01-01T11:28:44.034Z,1.70
2018-01-01T11:31:12.288Z,2.17
2018-01-01T11:33:40.573Z,1.50
2018-01-01T11:36:08.855Z,1.73
2018-01-01T11:38:37.085Z,1.10
2018-01-01T11:41:06.122Z,1.53
2018-01-01T11:43:34.391Z,1.67
2018-01-01T11:46:02.649Z,1.30
2018-01-01T11:48:30.902Z,1.30
2018-01-01T11:50:59.979Z,1.60
2018-01-01T11:53:28.231Z,1.93
2018-01-01T11:55:56.494Z,0.67
2018-01-01T11:58:24.750Z,1.57
2018-01-01T12:00:53.016Z,1.17
2018-01-01T12:03:21.273Z,1.53
2018-01-01T12:05:50.311Z,1.57
2018-01-01T12:08:18.565Z,1.13
2018-01-01T12:10:46.833Z,2.50
2018-01-01T12:13:15.150Z,1.67
2018-01-01T12:15:43.393Z,2.10
2018-01-01T12:18:11.665Z,1.30
2018-01-01T12:20:39.978Z,1.90
2018-01-01T12:23:08.233Z,1.70
2018-01-01T12:25:36.535Z,1.70
2018-01-01T12:28:04.797Z,1.50
2018-01-01T12:30:33.073Z,2.17
2018-01-01T12:33:01.334Z,1.60
2018-01-01T12:35:29.592Z,1.53
2018-01-01T12:37:57.862Z,2.47
2018-01-01T12:40:26.930Z,1.17
2018-01-01T12:42:55.230Z,1.67
2018-01-01T12:45:23.527Z,0.87
2018-01-01T12:47:51.772Z,2.00
2018-01-01T12:50:20.855Z,1.40
2018-01-01T12:52:49.143Z,1.40
2018-01-01T12:55:17.400Z,1.00
2018-01-01T12:57:45.703Z,1.60
2018-01-01T13:00:14.013Z,1.40
2018-01-01T13:02:42.316Z,1.10
2018-01-01T13:05:10.606Z,2.43
2018-01-01T13:07:38.899Z,1.40
2018-01-01T13:10:07.186Z,1.60
2018-01-01T13:12:36.218Z,1.10
2018-01-01T13:15:04.504Z,1.17
2018-01-01T13:17:32.766Z,1.40
2018-01-01T13:20:01.073Z,1.87
2018-01-01T13:22:29.379Z,1.73
2018-01-01T13:24:57.680Z,1.20
2018-01-01T13:27:26.751Z,2.40
2018-01-01T13:29:55.002Z,1.70
2018-01-01T13:32:23.269Z,1.20
2018-01-01T13:34:51.536Z,1.77
2018-01-01T13:37:19.793Z,1.43
2018-01-01T13:39:48.094Z,1.10
2018-01-01T13:42:16.404Z,1.37
2018-01-01T13:44:44.719Z,1.57
2018-01-01T13:47:12.960Z,0.90
2018-01-01T13:49:46.285Z,1.20
2018-01-01T13:52:14.681Z,1.27
2018-01-01T13:54:43.115Z,1.80
2018-01-01T13:57:11.528Z,1.20
2018-01-01T13:59:39.932Z,1.40
2018-01-01T14:02:08.353Z,1.20
2018-01-01T14:04:36.774Z,1.10
2018-01-01T14:07:05.188Z,1.50
2018-01-01T14:09:34.349Z,1.40
2018-01-01T14:12:02.737Z,1.80
2018-01-01T14:14:38.797Z,1.47
2018-01-01T14:17:07.191Z,1.70
2018-01-01T14:19:35.574Z,1.70
2018-01-01T14:22:03.884Z,2.00
2018-01-01T14:24:32.996Z,1.10
2018-01-01T14:27:01.306Z,1.23
2018-01-01T14:29:29.603Z,1.73
2018-01-01T14:31:57.899Z,2.13
2018-01-01T14:34:26.188Z,2.73
2018-01-01T14:36:55.220Z,1.63
2018-01-01T14:39:23.532Z,1.67
2018-01-01T14:41:51.835Z,1.40
2018-01-01T14:44:21.033Z,2.20
2018-01-01T14:46:49.297Z,2.57
2018-01-01T14:49:19.545Z,2.37
2018-01-01T14:51:47.912Z,1.77
2018-01-01T14:54:17.033Z,2.50
2018-01-01T14:56:45.385Z,1.60
2018-01-01T14:59:14.482Z,1.30
2018-01-01T15:01:44.098Z,1.53
2018-01-01T15:04:12.481Z,2.77
2018-01-01T15:06:40.997Z,1.97
2018-01-01T15:09:09.398Z,3.10
2018-01-01T15:11:37.734Z,1.63
2018-01-01T15:14:06.097Z,1.60
2018-01-01T15:16:34.456Z,2.13
2018-01-01T15:19:04.695Z,2.23
2018-01-01T15:21:32.967Z,3.53
2018-01-01T15:24:01.283Z,1.93
2018-01-01T15:26:29.619Z,2.77
2018-01-01T15:28:57.922Z,1.90
2018-01-01T15:31:26.210Z,2.43
2018-01-01T15:33:54.576Z,1.97
2018-01-01T15:36:24.094Z,3.17
2018-01-01T15:38:52.405Z,2.10
2018-01-01T15:41:20.716Z,1.90
2018-01-01T15:43:49.006Z,3.13
2018-01-01T15:46:17.280Z,2.97
2018-01-01T15:48:45.606Z,2.67
2018-01-01T15:51:14.970Z,2.93
2018-01-01T15:53:43.259Z,4.50
2018-01-01T15:56:11.578Z,2.60
2018-01-01T15:58:40.596Z,3.27
2018-01-01T16:01:08.912Z,3.20
2018-01-01T16:03:37.246Z,2.10
2018-01-01T16:06:05.530Z,2.80
2018-01-01T16:08:33.918Z,2.50
2018-01-01T16:11:02.257Z,3.93
2018-01-01T16:13:31.408Z,4.23
2018-01-01T16:15:59.784Z,3.00
2018-01-01T16:18:28.160Z,3.70
2018-01-01T16:20:56.511Z,3.33
2018-01-01T16:23:25.609Z,4.93
2018-01-01T16:25:53.933Z,4.87
2018-01-01T16:28:22.488Z,3.43
2018-01-01T16:30:50.784Z,3.50
2018-01-01T16:33:19.838Z,4.40
2018-01-01T16:35:48.153Z,4.40
2018-01-01T16:38:16.586Z,5.40
2018-01-01T16:40:44.992Z,5.57
2018-01-01T16:43:13.372Z,7.90
2018-01-01T16:45:41.772Z,7.17
2018-01-01T16:48:10.120Z,3.20
2018-01-01T16:50:38.479Z,3.67
2018-01-01T16:53:06.813Z,2.93
2018-01-01T16:55:35.165Z,2.40
2018-01-01T16:59:14.674Z,2.43
2018-01-01T17:01:43.040Z,1.30
2018-01-01T17:04:12.125Z,2.10
2018-01-01T17:06:41.302Z,2.77
2018-01-01T17:09:09.609Z,3.30
2018-01-01T17:11:38.692Z,3.50
2018-01-01T17:14:07.005Z,4.07
2018-01-01T17:16:35.315Z,4.60
2018-01-01T17:19:03.616Z,3.90
2018-01-01T17:21:31.923Z,5.63
2018-01-01T17:24:00.986Z,3.60
2018-01-01T17:26:29.290Z,6.20
2018-01-01T17:28:58.356Z,6.27
2018-01-01T17:31:33.195Z,5.87
2018-01-01T17:34:02.375Z,5.70
2018-01-01T17:36:31.597Z,6.23
2018-01-01T17:38:59.976Z,4.90
2018-01-01T17:41:29.090Z,7.93
2018-01-01T17:43:57.433Z,4.60
2018-01-01T17:46:25.795Z,5.07
2018-01-01T17:48:54.156Z,4.30
2018-01-01T17:51:22.499Z,3.70
2018-01-01T17:53:50.836Z,2.53
2018-01-01T17:56:19.206Z,2.80
2018-01-01T17:58:47.598Z,2.20
2018-01-01T18:01:15.895Z,2.50
2018-01-01T18:03:44.989Z,2.57
2018-01-01T18:06:13.568Z,2.87
2018-01-01T18:08:44.012Z,2.23
2018-01-01T18:11:13.486Z,2.27
2018-01-01T18:13:56.215Z,3.97
2018-01-01T18:16:38.291Z,2.30
2018-01-01T18:19:15.292Z,1.87
2018-01-01T18:21:44.461Z,2.80
2018-01-01T18:24:17.787Z,3.00
2018-01-01T18:26:46.199Z,2.17
2018-01-01T18:29:14.575Z,4.13
2018-01-01T18:31:42.931Z,2.40
2018-01-01T18:34:12.030Z,2.40
2018-01-01T18:36:40.389Z,3.13
2018-01-01T18:39:09.501Z,1.77
2018-01-01T18:41:37.911Z,2.20
2018-01-01T18:44:06.316Z,1.90
2018-01-01T18:46:34.724Z,1.50
2018-01-01T18:49:03.912Z,2.20
2018-01-01T18:51:33.153Z,1.60
2018-01-01T18:54:01.533Z,1.50
2018-01-01T18:56:29.903Z,1.57
2018-01-01T18:58:58.283Z,1.97
2018-01-01T19:01:26.695Z,1.10
2018-01-01T19:03:55.089Z,1.13
2018-01-01T19:06:23.473Z,1.23
2018-01-01T19:08:51.852Z,2.13
2018-01-01T19:11:20.325Z,1.90
2018-01-01T19:13:48.751Z,1.00
2018-01-01T19:16:17.168Z,1.30
2018-01-01T19:18:45.535Z,3.13
2018-01-01T19:21:13.996Z,3.07
2018-01-01T19:23:43.530Z,2.90
2018-01-01T19:26:12.809Z,1.77
2018-01-01T19:28:41.189Z,1.23
2018-01-01T19:31:09.561Z,1.60
2018-01-01T19:33:37.950Z,2.13
2018-01-01T19:36:06.332Z,1.90
2018-01-01T19:38:34.708Z,2.73
2018-01-01T19:41:03.099Z,0.80
2018-01-01T19:43:31.506Z,1.20
2018-01-01T19:46:01.563Z,1.10
2018-01-01T19:48:29.931Z,1.23
2018-01-01T19:50:58.337Z,0.97
2018-01-01T19:53:26.753Z,1.33
2018-01-01T19:55:55.154Z,0.97
2018-01-01T19:58:24.328Z,1.30
2018-01-01T20:00:52.718Z,1.00
2018-01-01T20:03:21.866Z,1.00
2018-01-01T20:05:50.203Z,1.03
2018-01-01T20:08:19.359Z,1.77
2018-01-01T20:10:47.764Z,1.00
2018-01-01T20:13:16.106Z,1.37
2018-01-01T20:15:44.460Z,1.20
2018-01-01T20:18:12.822Z,1.60
2018-01-01T20:20:41.172Z,1.43
2018-01-01T20:23:09.482Z,1.43
2018-01-01T20:25:37.796Z,1.47
2018-01-01T20:28:06.093Z,1.30
2018-01-01T20:30:34.398Z,1.80
2018-01-01T20:33:03.460Z,1.50
2018-01-01T20:35:31.762Z,1.13
2018-01-01T20:38:00.069Z,1.37
2018-01-01T20:40:28.388Z,1.10
2018-01-01T20:42:56.707Z,1.30
2018-01-01T20:45:25.030Z,1.33
2018-01-01T20:47:53.339Z,1.43
2018-01-01T20:50:21.645Z,1.47
2018-01-01T20:52:49.950Z,0.80
2018-01-01T20:55:18.249Z,2.10
2018-01-01T20:57:46.568Z,1.47
2018-01-01T21:00:14.888Z,1.57
2018-01-01T21:02:43.192Z,0.90
2018-01-01T21:05:11.500Z,1.10
2018-01-01T21:07:39.853Z,1.10
2018-01-01T21:10:08.149Z,1.27
2018-01-01T21:12:37.279Z,1.03
2018-01-01T21:15:05.576Z,0.67
2018-01-01T21:17:34.648Z,0.90
2018-01-01T21:20:02.948Z,0.70
2018-01-01T21:22:31.265Z,0.87
2018-01-01T21:25:00.323Z,1.00
2018-01-01T21:27:28.630Z,1.03
2018-01-01T21:29:57.694Z,0.97
2018-01-01T21:32:25.993Z,1.03
2018-01-01T21:34:54.311Z,0.83
2018-01-01T21:37:22.629Z,0.77
2018-01-01T21:39:50.936Z,1.40
2018-01-01T21:42:20.008Z,0.70
2018-01-01T21:44:48.327Z,0.53
2018-01-01T21:47:16.635Z,0.40
2018-01-01T21:49:44.929Z,0.60
2018-01-01T21:52:14.001Z,0.50
2018-01-01T21:54:42.309Z,0.80
2018-01-01T21:57:10.613Z,0.70
2018-01-01T21:59:39.684Z,0.97
2018-01-01T22:02:07.985Z,0.50
2018-01-01T22:04:37.060Z,0.63
2018-01-01T22:07:05.383Z,0.40
2018-01-01T22:09:33.679Z,0.60
2018-01-01T22:12:01.997Z,0.60
2018-01-01T22:14:31.059Z,0.60
2018-01-01T22:16:59.366Z,0.50
2018-01-01T22:19:28.448Z,0.60
2018-01-01T22:21:56.763Z,0.67
2018-01-01T22:24:25.061Z,0.30
2018-01-01T22:26:53.366Z,0.50
2018-01-01T22:29:21.671Z,0.70
2018-01-01T22:31:50.753Z,0.60
2018-01-01T22:34:19.073Z,0.33
2018-01-01T22:36:47.386Z,0.53
2018-01-01T22:39:15.695Z,0.53
2018-01-01T22:41:44.771Z,0.73
2018-01-01T22:44:13.113Z,0.50
2018-01-01T22:46:41.413Z,0.50
2018-01-01T22:49:10.489Z,0.30
2018-01-01T22:51:38.795Z,0.50
2018-01-01T22:54:07.110Z,0.47
2018-01-01T22:56:35.420Z,0.50
2018-01-01T22:59:03.728Z,0.50
2018-01-01T23:01:32.028Z,0.60
2018-01-01T23:04:01.103Z,0.43
2018-01-01T23:06:29.422Z,0.40
2018-01-01T23:08:57.726Z,0.40
2018-01-01T23:11:26.132Z,0.63
2018-01-01T23:13:54.572Z,0.47
2018-01-01T23:18:57.525Z,0.40
2018-01-01T23:21:26.671Z,0.40
2018-01-01T23:23:55.151Z,0.40
2018-01-01T23:26:23.656Z,0.40
2018-01-01T23:28:53.947Z,0.40
2018-01-01T23:31:22.435Z,0.40
2018-01-01T23:33:57.729Z,0.40
2018-01-01T23:36:31.195Z,0.30
2018-01-01T23:39:00.418Z,0.40
2018-01-01T23:41:32.619Z,0.30
2018-01-01T23:44:02.262Z,0.30
2018-01-01T23:46:32.634Z,0.30
2018-01-01T23:49:03.272Z,0.77
2018-01-01T23:54:24.846Z,0.40
2018-01-01T23:56:53.415Z,0.30
2018-01-01T23:59:23.646Z,0.40
